PWSweather.com
Personal Weather Stations
Station Observations
DW6359
Southwest Cambria, Cambria, WI 53923

Southwest CambriaCambria, WI 53923

Lat: 43.541194, Lon: -89.11275

Elevation: 945

Station Type: Davis Vantage Pro2

http://home.centurytel.net/weathercambria/wxcambria.html

High Low Average
Temperature 23.1°F-4.9°C -0.2°F-17.9°C 12.2°F-11.0°C
Dew Point 12.1°F-11.1°C -3.6°F-19.8°C 5.7°F-14.6°C
Winds 15.0 mph 24.1 kmh Calm Calm 4.0 mph WSW6.4 kmh WSW
Wind Gusts 19.0 mph30.6 kmh -- 2.0 mph3.2 kmh
Humidity 88% 58% 76%
Pressure 30.64 in1037.6 mb 30.20 in1022.7 mb -
Precipitation 0.00 in0.0 mm - -
Hour Temp Dew Point Humidity Winds Wind Gusts Pressure Precip Precip Rate Daily Precip Total
12:00 AM 5.8°F-14.6°C 2.8°F-16.2°C 87% 1.0 mph WSW1.6 kmh WSW -- 30.64 in1037.6 mb 0.00 in0.0 mm 0.00 in0.0 mm 0.00 in0.0 mm
12:05 AM 5.6°F-14.7°C 2.6°F-16.3°C 87% Calm Calm -- 30.65 in1037.9 mb 0.00 in0.0 mm 0.00 in0.0 mm 0.00 in0.0 mm
12:10 AM 5.4°F-14.8°C 2.4°F-16.4°C 87% 1.0 mph WSW1.6 kmh WSW -- 30.65 in1037.9 mb 0.00 in0.0 mm 0.00 in0.0 mm 0.00 in0.0 mm
12:15 AM 5.1°F-14.9°C 2.1°F-16.6°C 87% 2.0 mph WSW3.2 kmh WSW -- 30.65 in1037.9 mb 0.00 in0.0 mm 0.00 in0.0 mm 0.00 in0.0 mm
12:20 AM 5.0°F-15.0°C 4.3°F-15.4°C 97% 2.0 mph WSW3.2 kmh WSW -- 30.65 in1037.9 mb 0.00 in0.0 mm 0.00 in0.0 mm 0.00 in0.0 mm
12:25 AM 5.0°F-15.0°C 2.0°F-16.7°C 87% Calm Calm -- 30.64 in1037.6 mb 0.00 in0.0 mm 0.00 in0.0 mm 0.00 in0.0 mm
12:30 AM 5.1°F-14.9°C 2.1°F-16.6°C 87% 1.0 mph WSW1.6 kmh WSW -- 30.64 in1037.6 mb 0.00 in0.0 mm 0.00 in0.0 mm 0.00 in0.0 mm
12:35 AM 5.2°F-14.9°C 2.2°F-16.6°C 87% Calm Calm -- 30.64 in1037.6 mb 0.00 in0.0 mm 0.00 in0.0 mm 0.00 in0.0 mm
12:40 AM 5.3°F-14.8°C 2.3°F-16.5°C 87% 2.0 mph WSW3.2 kmh WSW 3.0 mph4.8 kmh 30.64 in1037.6 mb 0.00 in0.0 mm 0.00 in0.0 mm 0.00 in0.0 mm
12:45 AM 5.5°F-14.7°C 2.5°F-16.4°C 87% 1.0 mph WSW1.6 kmh WSW 3.0 mph4.8 kmh 30.64 in1037.6 mb 0.00 in0.0 mm 0.00 in0.0 mm 0.00 in0.0 mm
12:50 AM 5.6°F-14.7°C 2.6°F-16.3°C 87% 1.0 mph WSW1.6 kmh WSW -- 30.63 in1037.3 mb 0.00 in0.0 mm 0.00 in0.0 mm 0.00 in0.0 mm
12:55 AM 5.6°F-14.7°C 2.6°F-16.3°C 87% 2.0 mph WSW3.2 kmh WSW -- 30.63 in1037.3 mb 0.00 in0.0 mm 0.00 in0.0 mm 0.00 in0.0 mm
01:00 AM 5.6°F-14.7°C 2.6°F-16.3°C 87% 1.0 mph WSW1.6 kmh WSW -- 30.64 in1037.6 mb 0.00 in0.0 mm 0.00 in0.0 mm 0.00 in0.0 mm
01:05 AM 5.6°F-14.7°C 2.6°F-16.3°C 87% 2.0 mph WSW3.2 kmh WSW -- 30.64 in1037.6 mb 0.00 in0.0 mm 0.00 in0.0 mm 0.00 in0.0 mm
01:10 AM 5.6°F-14.7°C 2.6°F-16.3°C 87% 1.0 mph WSW1.6 kmh WSW -- 30.64 in1037.6 mb 0.00 in0.0 mm 0.00 in0.0 mm 0.00 in0.0 mm
01:15 AM 5.6°F-14.7°C 2.6°F-16.3°C 87% 1.0 mph WSW1.6 kmh WSW -- 30.64 in1037.6 mb 0.00 in0.0 mm 0.00 in0.0 mm 0.00 in0.0 mm
01:20 AM 5.5°F-14.7°C 2.5°F-16.4°C 87% 1.0 mph WSW1.6 kmh WSW -- 30.64 in1037.6 mb 0.00 in0.0 mm 0.00 in0.0 mm 0.00 in0.0 mm
01:25 AM 5.6°F-14.7°C 2.6°F-16.3°C 87% 2.0 mph WSW3.2 kmh WSW -- 30.64 in1037.6 mb 0.00 in0.0 mm 0.00 in0.0 mm 0.00 in0.0 mm
01:30 AM 5.8°F-14.6°C 2.8°F-16.2°C 87% 1.0 mph WSW1.6 kmh WSW 4.0 mph6.4 kmh 30.63 in1037.3 mb 0.00 in0.0 mm 0.00 in0.0 mm 0.00 in0.0 mm
01:35 AM 5.7°F-14.6°C 2.7°F-16.3°C 87% 1.0 mph WSW1.6 kmh WSW 4.0 mph6.4 kmh 30.63 in1037.3 mb 0.00 in0.0 mm 0.00 in0.0 mm 0.00 in0.0 mm
01:40 AM 5.6°F-14.7°C 2.6°F-16.3°C 87% 2.0 mph WSW3.2 kmh WSW -- 30.63 in1037.3 mb 0.00 in0.0 mm 0.00 in0.0 mm 0.00 in0.0 mm
01:45 AM 5.7°F-14.6°C 2.7°F-16.3°C 87% 2.0 mph WSW3.2 kmh WSW -- 30.63 in1037.3 mb 0.00 in0.0 mm 0.00 in0.0 mm 0.00 in0.0 mm
01:50 AM 5.5°F-14.7°C 2.5°F-16.4°C 87% 2.0 mph WSW3.2 kmh WSW -- 30.63 in1037.3 mb 0.00 in0.0 mm 0.00 in0.0 mm 0.00 in0.0 mm
01:55 AM 5.3°F-14.8°C 2.0°F-16.7°C 86% 1.0 mph WSW1.6 kmh WSW -- 30.63 in1037.3 mb 0.00 in0.0 mm 0.00 in0.0 mm 0.00 in0.0 mm
02:00 AM 5.0°F-15.0°C 1.7°F-16.8°C 86% Calm Calm -- 30.63 in1037.3 mb 0.00 in0.0 mm 0.00 in0.0 mm 0.00 in0.0 mm
02:05 AM 4.8°F-15.1°C 1.5°F-16.9°C 86% 1.0 mph WSW1.6 kmh WSW -- 30.63 in1037.3 mb 0.00 in0.0 mm 0.00 in0.0 mm 0.00 in0.0 mm
02:10 AM 4.8°F-15.1°C 1.5°F-16.9°C 86% 1.0 mph WSW1.6 kmh WSW -- 30.63 in1037.3 mb 0.00 in0.0 mm 0.00 in0.0 mm 0.00 in0.0 mm
02:15 AM 4.8°F-15.1°C 1.8°F-16.8°C 87% 2.0 mph WSW3.2 kmh WSW -- 30.63 in1037.3 mb 0.00 in0.0 mm 0.00 in0.0 mm 0.00 in0.0 mm
02:20 AM 4.9°F-15.1°C 1.9°F-16.7°C 87% 3.0 mph WSW4.8 kmh WSW 4.0 mph6.4 kmh 30.63 in1037.3 mb 0.00 in0.0 mm 0.00 in0.0 mm 0.00 in0.0 mm
02:25 AM 4.9°F-15.1°C 1.6°F-16.9°C 86% 1.0 mph WSW1.6 kmh WSW 4.0 mph6.4 kmh 30.63 in1037.3 mb 0.00 in0.0 mm 0.00 in0.0 mm 0.00 in0.0 mm
02:30 AM 4.7°F-15.2°C 1.5°F-16.9°C 86% 2.0 mph WSW3.2 kmh WSW -- 30.63 in1037.3 mb 0.00 in0.0 mm 0.00 in0.0 mm 0.00 in0.0 mm
02:35 AM 4.6°F-15.2°C 1.4°F-17.0°C 86% 2.0 mph WSW3.2 kmh WSW -- 30.63 in1037.3 mb 0.00 in0.0 mm 0.00 in0.0 mm 0.00 in0.0 mm
02:40 AM 4.6°F-15.2°C 1.4°F-17.0°C 86% 1.0 mph WSW1.6 kmh WSW -- 30.63 in1037.3 mb 0.00 in0.0 mm 0.00 in0.0 mm 0.00 in0.0 mm
02:45 AM 4.5°F-15.3°C 1.3°F-17.1°C 86% Calm Calm -- 30.64 in1037.6 mb 0.00 in0.0 mm 0.00 in0.0 mm 0.00 in0.0 mm
02:50 AM 4.5°F-15.3°C 1.3°F-17.1°C 86% 1.0 mph WSW1.6 kmh WSW -- 30.64 in1037.6 mb 0.00 in0.0 mm 0.00 in0.0 mm 0.00 in0.0 mm
02:55 AM 4.4°F-15.3°C 1.2°F-17.1°C 86% 1.0 mph WSW1.6 kmh WSW -- 30.64 in1037.6 mb 0.00 in0.0 mm 0.00 in0.0 mm 0.00 in0.0 mm
03:00 AM 4.2°F-15.4°C 1.0°F-17.2°C 86% 1.0 mph WSW1.6 kmh WSW -- 30.64 in1037.6 mb 0.00 in0.0 mm 0.00 in0.0 mm 0.00 in0.0 mm
03:05 AM 4.1°F-15.5°C 0.9°F-17.3°C 86% Calm Calm -- 30.64 in1037.6 mb 0.00 in0.0 mm 0.00 in0.0 mm 0.00 in0.0 mm
03:10 AM 4.0°F-15.6°C 0.8°F-17.3°C 86% 1.0 mph WSW1.6 kmh WSW 1.0 mph1.6 kmh 30.64 in1037.6 mb 0.00 in0.0 mm 0.00 in0.0 mm 0.00 in0.0 mm
03:15 AM 3.9°F-15.6°C 0.7°F-17.4°C 86% 1.0 mph WSW1.6 kmh WSW 1.0 mph1.6 kmh 30.63 in1037.3 mb 0.00 in0.0 mm 0.00 in0.0 mm 0.00 in0.0 mm
03:20 AM 3.7°F-15.7°C 0.5°F-17.5°C 86% Calm Calm -- 30.64 in1037.6 mb 0.00 in0.0 mm 0.00 in0.0 mm 0.00 in0.0 mm
03:25 AM 3.6°F-15.8°C 0.4°F-17.6°C 86% Calm Calm -- 30.63 in1037.3 mb 0.00 in0.0 mm 0.00 in0.0 mm 0.00 in0.0 mm
03:30 AM 3.4°F-15.9°C 0.2°F-17.7°C 86% 1.0 mph WSW1.6 kmh WSW -- 30.63 in1037.3 mb 0.00 in0.0 mm 0.00 in0.0 mm 0.00 in0.0 mm
03:35 AM 3.3°F-15.9°C 0.1°F-17.7°C 86% 1.0 mph WSW1.6 kmh WSW -- 30.63 in1037.3 mb 0.00 in0.0 mm 0.00 in0.0 mm 0.00 in0.0 mm
03:40 AM 3.4°F-15.9°C 0.2°F-17.7°C 86% Calm Calm -- 30.62 in1036.9 mb 0.00 in0.0 mm 0.00 in0.0 mm 0.00 in0.0 mm
03:45 AM 3.4°F-15.9°C 0.2°F-17.7°C 86% Calm Calm -- 30.63 in1037.3 mb 0.00 in0.0 mm 0.00 in0.0 mm 0.00 in0.0 mm
03:50 AM 3.3°F-15.9°C 0.1°F-17.7°C 86% Calm Calm -- 30.62 in1036.9 mb 0.00 in0.0 mm 0.00 in0.0 mm 0.00 in0.0 mm
03:55 AM 3.1°F-16.1°C -0.1°F-17.8°C 86% Calm Calm -- 30.62 in1036.9 mb 0.00 in0.0 mm 0.00 in0.0 mm 0.00 in0.0 mm
04:00 AM 2.7°F-16.3°C -0.5°F-18.1°C 86% 1.0 mph WSW1.6 kmh WSW 2.0 mph3.2 kmh 30.62 in1036.9 mb 0.00 in0.0 mm 0.00 in0.0 mm 0.00 in0.0 mm
04:05 AM 2.4°F-16.4°C -0.8°F-18.2°C 86% Calm Calm 2.0 mph3.2 kmh 30.62 in1036.9 mb 0.00 in0.0 mm 0.00 in0.0 mm 0.00 in0.0 mm
04:10 AM 2.1°F-16.6°C -1.4°F-18.6°C 85% 1.0 mph WSW1.6 kmh WSW -- 30.62 in1036.9 mb 0.00 in0.0 mm 0.00 in0.0 mm 0.00 in0.0 mm
04:15 AM 1.8°F-16.8°C -1.6°F-18.7°C 85% Calm Calm -- 30.62 in1036.9 mb 0.00 in0.0 mm 0.00 in0.0 mm 0.00 in0.0 mm
04:20 AM 1.7°F-16.8°C -1.5°F-18.6°C 86% 1.0 mph WSW1.6 kmh WSW -- 30.62 in1036.9 mb 0.00 in0.0 mm 0.00 in0.0 mm 0.00 in0.0 mm
04:25 AM 1.6°F-16.9°C -1.6°F-18.7°C 86% 1.0 mph WSW1.6 kmh WSW -- 30.62 in1036.9 mb 0.00 in0.0 mm 0.00 in0.0 mm 0.00 in0.0 mm
04:30 AM 1.6°F-16.9°C -1.6°F-18.7°C 86% 1.0 mph WSW1.6 kmh WSW -- 30.62 in1036.9 mb 0.00 in0.0 mm 0.00 in0.0 mm 0.00 in0.0 mm
04:35 AM 1.7°F-16.8°C -1.5°F-18.6°C 86% 1.0 mph WSW1.6 kmh WSW -- 30.62 in1036.9 mb 0.00 in0.0 mm 0.00 in0.0 mm 0.00 in0.0 mm
04:40 AM 1.7°F-16.8°C -1.5°F-18.6°C 86% 3.0 mph WSW4.8 kmh WSW -- 30.62 in1036.9 mb 0.00 in0.0 mm 0.00 in0.0 mm 0.00 in0.0 mm
04:45 AM 1.7°F-16.8°C -1.5°F-18.6°C 86% 1.0 mph WSW1.6 kmh WSW -- 30.61 in1036.6 mb 0.00 in0.0 mm 0.00 in0.0 mm 0.00 in0.0 mm
04:50 AM 1.5°F-16.9°C -1.7°F-18.7°C 86% Calm Calm 3.0 mph4.8 kmh 30.61 in1036.6 mb 0.00 in0.0 mm 0.00 in0.0 mm 0.00 in0.0 mm
04:55 AM 1.4°F-17.0°C -1.8°F-18.8°C 86% 3.0 mph WSW4.8 kmh WSW 3.0 mph4.8 kmh 30.61 in1036.6 mb 0.00 in0.0 mm 0.00 in0.0 mm 0.00 in0.0 mm
05:00 AM 1.3°F-17.1°C -1.9°F-18.8°C 86% 2.0 mph WSW3.2 kmh WSW -- 30.61 in1036.6 mb 0.00 in0.0 mm 0.00 in0.0 mm 0.00 in0.0 mm
05:05 AM 1.4°F-17.0°C -1.8°F-18.8°C 86% Calm Calm -- 30.61 in1036.6 mb 0.00 in0.0 mm 0.00 in0.0 mm 0.00 in0.0 mm
05:10 AM 1.4°F-17.0°C -1.8°F-18.8°C 86% 2.0 mph WSW3.2 kmh WSW -- 30.61 in1036.6 mb 0.00 in0.0 mm 0.00 in0.0 mm 0.00 in0.0 mm
05:15 AM 1.4°F-17.0°C -1.8°F-18.8°C 86% 1.0 mph WSW1.6 kmh WSW -- 30.61 in1036.6 mb 0.00 in0.0 mm 0.00 in0.0 mm 0.00 in0.0 mm
05:20 AM 1.3°F-17.1°C -1.9°F-18.8°C 86% 1.0 mph WSW1.6 kmh WSW -- 30.61 in1036.6 mb 0.00 in0.0 mm 0.00 in0.0 mm 0.00 in0.0 mm
05:25 AM 1.1°F-17.2°C -2.1°F-18.9°C 86% 1.0 mph WSW1.6 kmh WSW -- 30.61 in1036.6 mb 0.00 in0.0 mm 0.00 in0.0 mm 0.00 in0.0 mm
05:30 AM 1.1°F-17.2°C -2.1°F-18.9°C 86% 1.0 mph WSW1.6 kmh WSW -- 30.61 in1036.6 mb 0.00 in0.0 mm 0.00 in0.0 mm 0.00 in0.0 mm
05:35 AM 1.1°F-17.2°C -2.1°F-18.9°C 86% 2.0 mph WSW3.2 kmh WSW -- 30.61 in1036.6 mb 0.00 in0.0 mm 0.00 in0.0 mm 0.00 in0.0 mm
05:40 AM 1.1°F-17.2°C -2.1°F-18.9°C 86% 2.0 mph WSW3.2 kmh WSW 3.0 mph4.8 kmh 30.61 in1036.6 mb 0.00 in0.0 mm 0.00 in0.0 mm 0.00 in0.0 mm
05:45 AM 1.1°F-17.2°C -2.1°F-18.9°C 86% 2.0 mph WSW3.2 kmh WSW 3.0 mph4.8 kmh 30.62 in1036.9 mb 0.00 in0.0 mm 0.00 in0.0 mm 0.00 in0.0 mm
05:50 AM 1.0°F-17.2°C -2.2°F-19.0°C 86% 1.0 mph WSW1.6 kmh WSW -- 30.61 in1036.6 mb 0.00 in0.0 mm 0.00 in0.0 mm 0.00 in0.0 mm
05:55 AM 0.9°F-17.3°C -2.5°F-19.2°C 85% 1.0 mph WSW1.6 kmh WSW -- 30.61 in1036.6 mb 0.00 in0.0 mm 0.00 in0.0 mm 0.00 in0.0 mm
06:00 AM 0.9°F-17.3°C -2.5°F-19.2°C 85% Calm Calm -- 30.61 in1036.6 mb 0.00 in0.0 mm 0.00 in0.0 mm 0.00 in0.0 mm
06:05 AM 0.8°F-17.3°C -2.6°F-19.2°C 85% Calm Calm -- 30.61 in1036.6 mb 0.00 in0.0 mm 0.00 in0.0 mm 0.00 in0.0 mm
06:10 AM 0.9°F-17.3°C -2.3°F-19.1°C 86% 1.0 mph WSW1.6 kmh WSW -- 30.61 in1036.6 mb 0.00 in0.0 mm 0.00 in0.0 mm 0.00 in0.0 mm
06:15 AM 0.9°F-17.3°C -2.3°F-19.1°C 86% 2.0 mph WSW3.2 kmh WSW -- 30.61 in1036.6 mb 0.00 in0.0 mm 0.00 in0.0 mm 0.00 in0.0 mm
06:20 AM 1.0°F-17.2°C -2.2°F-19.0°C 86% Calm Calm -- 30.61 in1036.6 mb 0.00 in0.0 mm 0.00 in0.0 mm 0.00 in0.0 mm
06:25 AM 1.0°F-17.2°C -2.2°F-19.0°C 86% 1.0 mph WSW1.6 kmh WSW -- 30.61 in1036.6 mb 0.00 in0.0 mm 0.00 in0.0 mm 0.00 in0.0 mm
06:30 AM 1.0°F-17.2°C -2.2°F-19.0°C 86% 1.0 mph WSW1.6 kmh WSW 3.0 mph4.8 kmh 30.61 in1036.6 mb 0.00 in0.0 mm 0.00 in0.0 mm 0.00 in0.0 mm
06:35 AM 0.9°F-17.3°C -2.3°F-19.1°C 86% 1.0 mph WSW1.6 kmh WSW 3.0 mph4.8 kmh 30.61 in1036.6 mb 0.00 in0.0 mm 0.00 in0.0 mm 0.00 in0.0 mm
06:40 AM 0.8°F-17.3°C -2.6°F-19.2°C 85% Calm Calm -- 30.61 in1036.6 mb 0.00 in0.0 mm 0.00 in0.0 mm 0.00 in0.0 mm
06:45 AM 0.7°F-17.4°C -2.7°F-19.3°C 85% 1.0 mph WSW1.6 kmh WSW -- 30.60 in1036.2 mb 0.00 in0.0 mm 0.00 in0.0 mm 0.00 in0.0 mm
06:50 AM 0.6°F-17.4°C -2.8°F-19.3°C 85% 1.0 mph WSW1.6 kmh WSW -- 30.60 in1036.2 mb 0.00 in0.0 mm 0.00 in0.0 mm 0.00 in0.0 mm
06:55 AM 0.5°F-17.5°C -2.9°F-19.4°C 85% Calm Calm -- 30.60 in1036.2 mb 0.00 in0.0 mm 0.00 in0.0 mm 0.00 in0.0 mm
07:00 AM 0.5°F-17.5°C -2.9°F-19.4°C 85% Calm Calm -- 30.60 in1036.2 mb 0.00 in0.0 mm 0.00 in0.0 mm 0.00 in0.0 mm
07:05 AM 0.1°F-17.7°C -3.3°F-19.6°C 85% Calm Calm -- 30.60 in1036.2 mb 0.00 in0.0 mm 0.00 in0.0 mm 0.00 in0.0 mm
07:10 AM 0.0°F-17.8°C -3.4°F-19.7°C 85% 1.0 mph WSW1.6 kmh WSW -- 30.60 in1036.2 mb 0.00 in0.0 mm 0.00 in0.0 mm 0.00 in0.0 mm
07:15 AM -0.1°F-17.8°C -3.5°F-19.7°C 85% Calm Calm -- 30.60 in1036.2 mb 0.00 in0.0 mm 0.00 in0.0 mm 0.00 in0.0 mm
07:20 AM -0.2°F-17.9°C -3.6°F-19.8°C 85% Calm Calm 1.0 mph1.6 kmh 30.59 in1035.9 mb 0.00 in0.0 mm 0.00 in0.0 mm 0.00 in0.0 mm
07:25 AM -0.2°F-17.9°C -3.6°F-19.8°C 85% 1.0 mph WSW1.6 kmh WSW 1.0 mph1.6 kmh 30.59 in1035.9 mb 0.00 in0.0 mm 0.00 in0.0 mm 0.00 in0.0 mm
07:30 AM -0.1°F-17.8°C -3.5°F-19.7°C 85% 1.0 mph WSW1.6 kmh WSW -- 30.60 in1036.2 mb 0.00 in0.0 mm 0.00 in0.0 mm 0.00 in0.0 mm
07:35 AM 0.0°F-17.8°C -3.4°F-19.7°C 85% Calm Calm -- 30.60 in1036.2 mb 0.00 in0.0 mm 0.00 in0.0 mm 0.00 in0.0 mm
07:40 AM 0.0°F-17.8°C -3.4°F-19.7°C 85% Calm Calm -- 30.60 in1036.2 mb 0.00 in0.0 mm 0.00 in0.0 mm 0.00 in0.0 mm
07:45 AM 0.0°F-17.8°C -3.4°F-19.7°C 85% Calm Calm -- 30.59 in1035.9 mb 0.00 in0.0 mm 0.00 in0.0 mm 0.00 in0.0 mm
07:50 AM 0.0°F-17.8°C -3.4°F-19.7°C 85% 1.0 mph WSW1.6 kmh WSW -- 30.59 in1035.9 mb 0.00 in0.0 mm 0.00 in0.0 mm 0.00 in0.0 mm
07:55 AM 0.0°F-17.8°C -3.4°F-19.7°C 85% 1.0 mph WSW1.6 kmh WSW -- 30.59 in1035.9 mb 0.00 in0.0 mm 0.00 in0.0 mm 0.00 in0.0 mm
08:00 AM 0.1°F-17.7°C -3.3°F-19.6°C 85% 2.0 mph WSW3.2 kmh WSW -- 30.59 in1035.9 mb 0.00 in0.0 mm 0.00 in0.0 mm 0.00 in0.0 mm
08:05 AM 0.2°F-17.7°C -3.0°F-19.4°C 86% 2.0 mph WSW3.2 kmh WSW -- 30.59 in1035.9 mb 0.00 in0.0 mm 0.00 in0.0 mm 0.00 in0.0 mm
08:10 AM 0.4°F-17.6°C -2.8°F-19.3°C 86% 1.0 mph WSW1.6 kmh WSW 4.0 mph6.4 kmh 30.59 in1035.9 mb 0.00 in0.0 mm 0.00 in0.0 mm 0.00 in0.0 mm
08:15 AM 0.7°F-17.4°C -2.5°F-19.2°C 86% Calm Calm 4.0 mph6.4 kmh 30.58 in1035.6 mb 0.00 in0.0 mm 0.00 in0.0 mm 0.00 in0.0 mm
08:20 AM 1.1°F-17.2°C -2.1°F-18.9°C 86% 1.0 mph WSW1.6 kmh WSW -- 30.58 in1035.6 mb 0.00 in0.0 mm 0.00 in0.0 mm 0.00 in0.0 mm
08:25 AM 1.4°F-17.0°C -1.8°F-18.8°C 86% Calm Calm -- 30.59 in1035.9 mb 0.00 in0.0 mm 0.00 in0.0 mm 0.00 in0.0 mm
08:30 AM 1.7°F-16.8°C -1.5°F-18.6°C 86% Calm Calm -- 30.58 in1035.6 mb 0.00 in0.0 mm 0.00 in0.0 mm 0.00 in0.0 mm
08:35 AM 2.0°F-16.7°C -1.2°F-18.4°C 86% Calm Calm -- 30.59 in1035.9 mb 0.00 in0.0 mm 0.00 in0.0 mm 0.00 in0.0 mm
08:40 AM 2.3°F-16.5°C -0.9°F-18.3°C 86% 2.0 mph WSW3.2 kmh WSW -- 30.59 in1035.9 mb 0.00 in0.0 mm 0.00 in0.0 mm 0.00 in0.0 mm
08:45 AM 2.4°F-16.4°C -0.8°F-18.2°C 86% 3.0 mph WSW4.8 kmh WSW -- 30.59 in1035.9 mb 0.00 in0.0 mm 0.00 in0.0 mm 0.00 in0.0 mm
08:50 AM 2.6°F-16.3°C -0.6°F-18.1°C 86% 2.0 mph W3.2 kmh W -- 30.59 in1035.9 mb 0.00 in0.0 mm 0.00 in0.0 mm 0.00 in0.0 mm
08:55 AM 2.9°F-16.2°C -0.3°F-17.9°C 86% Calm Calm -- 30.59 in1035.9 mb 0.00 in0.0 mm 0.00 in0.0 mm 0.00 in0.0 mm
09:00 AM 3.1°F-16.1°C -0.1°F-17.8°C 86% 2.0 mph WSW3.2 kmh WSW 4.0 mph6.4 kmh 30.59 in1035.9 mb 0.00 in0.0 mm 0.00 in0.0 mm 0.00 in0.0 mm
09:05 AM 3.2°F-16.0°C 0.0°F-17.8°C 86% 1.0 mph WSW1.6 kmh WSW 4.0 mph6.4 kmh 30.58 in1035.6 mb 0.00 in0.0 mm 0.00 in0.0 mm 0.00 in0.0 mm
09:10 AM 3.3°F-15.9°C 0.1°F-17.7°C 86% 1.0 mph WSW1.6 kmh WSW -- 30.59 in1035.9 mb 0.00 in0.0 mm 0.00 in0.0 mm 0.00 in0.0 mm
09:15 AM 3.5°F-15.8°C 0.3°F-17.6°C 86% 2.0 mph WSW3.2 kmh WSW -- 30.59 in1035.9 mb 0.00 in0.0 mm 0.00 in0.0 mm 0.00 in0.0 mm
09:20 AM 3.7°F-15.7°C 0.5°F-17.5°C 86% 2.0 mph WSW3.2 kmh WSW -- 30.58 in1035.6 mb 0.00 in0.0 mm 0.00 in0.0 mm 0.00 in0.0 mm
09:25 AM 3.9°F-15.6°C 0.7°F-17.4°C 86% 1.0 mph WSW1.6 kmh WSW -- 30.59 in1035.9 mb 0.00 in0.0 mm 0.00 in0.0 mm 0.00 in0.0 mm
09:30 AM 4.1°F-15.5°C 0.9°F-17.3°C 86% 1.0 mph SW1.6 kmh SW -- 30.59 in1035.9 mb 0.00 in0.0 mm 0.00 in0.0 mm 0.00 in0.0 mm
09:35 AM 4.2°F-15.4°C 1.0°F-17.2°C 86% 1.0 mph SW1.6 kmh SW -- 30.59 in1035.9 mb 0.00 in0.0 mm 0.00 in0.0 mm 0.00 in0.0 mm
09:40 AM 4.4°F-15.3°C 1.2°F-17.1°C 86% Calm Calm -- 30.59 in1035.9 mb 0.00 in0.0 mm 0.00 in0.0 mm 0.00 in0.0 mm
09:45 AM 4.5°F-15.3°C 1.0°F-17.2°C 85% 2.0 mph WSW3.2 kmh WSW -- 30.59 in1035.9 mb 0.00 in0.0 mm 0.00 in0.0 mm 0.00 in0.0 mm
09:50 AM 4.8°F-15.1°C 1.5°F-16.9°C 86% 2.0 mph WSW3.2 kmh WSW 3.0 mph4.8 kmh 30.59 in1035.9 mb 0.00 in0.0 mm 0.00 in0.0 mm 0.00 in0.0 mm
09:55 AM 5.2°F-14.9°C 1.9°F-16.7°C 86% Calm Calm 3.0 mph4.8 kmh 30.59 in1035.9 mb 0.00 in0.0 mm 0.00 in0.0 mm 0.00 in0.0 mm
10:00 AM 5.5°F-14.7°C 2.2°F-16.6°C 86% 1.0 mph WSW1.6 kmh WSW -- 30.58 in1035.6 mb 0.00 in0.0 mm 0.00 in0.0 mm 0.00 in0.0 mm
10:05 AM 5.6°F-14.7°C 2.3°F-16.5°C 86% 2.0 mph SSW3.2 kmh SSW -- 30.58 in1035.6 mb 0.00 in0.0 mm 0.00 in0.0 mm 0.00 in0.0 mm
10:10 AM 5.8°F-14.6°C 2.5°F-16.4°C 86% 1.0 mph SSW1.6 kmh SSW -- 30.58 in1035.6 mb 0.00 in0.0 mm 0.00 in0.0 mm 0.00 in0.0 mm
10:15 AM 6.0°F-14.4°C 2.7°F-16.3°C 86% 3.0 mph SW4.8 kmh SW -- 30.58 in1035.6 mb 0.00 in0.0 mm 0.00 in0.0 mm 0.00 in0.0 mm
10:20 AM 5.7°F-14.6°C 2.9°F-16.2°C 88% 3.0 mph SW4.8 kmh SW -- 30.58 in1035.6 mb 0.00 in0.0 mm 0.00 in0.0 mm 0.00 in0.0 mm
10:25 AM 5.8°F-14.6°C 3.0°F-16.1°C 88% 4.0 mph SW6.4 kmh SW -- 30.58 in1035.6 mb 0.00 in0.0 mm 0.00 in0.0 mm 0.00 in0.0 mm
10:30 AM 6.1°F-14.4°C 3.3°F-15.9°C 88% 1.0 mph SW1.6 kmh SW -- 30.58 in1035.6 mb 0.00 in0.0 mm 0.00 in0.0 mm 0.00 in0.0 mm
10:35 AM 6.5°F-14.2°C 3.7°F-15.7°C 88% 1.0 mph SW1.6 kmh SW -- 30.58 in1035.6 mb 0.00 in0.0 mm 0.00 in0.0 mm 0.00 in0.0 mm
10:40 AM 6.8°F-14.0°C 4.0°F-15.6°C 88% 3.0 mph WSW4.8 kmh WSW 6.0 mph9.7 kmh 30.57 in1035.2 mb 0.00 in0.0 mm 0.00 in0.0 mm 0.00 in0.0 mm
10:45 AM 6.8°F-14.0°C 3.8°F-15.7°C 87% 2.0 mph SW3.2 kmh SW 6.0 mph9.7 kmh 30.57 in1035.2 mb 0.00 in0.0 mm 0.00 in0.0 mm 0.00 in0.0 mm
10:50 AM 7.0°F-13.9°C 4.0°F-15.6°C 87% 4.0 mph WSW6.4 kmh WSW -- 30.57 in1035.2 mb 0.00 in0.0 mm 0.00 in0.0 mm 0.00 in0.0 mm
10:55 AM 7.2°F-13.8°C 4.2°F-15.4°C 87% 4.0 mph WSW6.4 kmh WSW -- 30.57 in1035.2 mb 0.00 in0.0 mm 0.00 in0.0 mm 0.00 in0.0 mm
11:00 AM 7.4°F-13.7°C 4.4°F-15.3°C 87% 1.0 mph WSW1.6 kmh WSW -- 30.57 in1035.2 mb 0.00 in0.0 mm 0.00 in0.0 mm 0.00 in0.0 mm
11:05 AM 7.7°F-13.5°C 4.7°F-15.2°C 87% 2.0 mph SW3.2 kmh SW -- 30.57 in1035.2 mb 0.00 in0.0 mm 0.00 in0.0 mm 0.00 in0.0 mm
11:10 AM 7.8°F-13.4°C 4.8°F-15.1°C 87% 3.0 mph SW4.8 kmh SW -- 30.57 in1035.2 mb 0.00 in0.0 mm 0.00 in0.0 mm 0.00 in0.0 mm
11:15 AM 8.0°F-13.3°C 4.9°F-15.1°C 87% 4.0 mph SW6.4 kmh SW -- 30.57 in1035.2 mb 0.00 in0.0 mm 0.00 in0.0 mm 0.00 in0.0 mm
11:20 AM 8.3°F-13.2°C 5.2°F-14.9°C 87% 2.0 mph WSW3.2 kmh WSW -- 30.57 in1035.2 mb 0.00 in0.0 mm 0.00 in0.0 mm 0.00 in0.0 mm
11:25 AM 8.9°F-12.8°C 5.8°F-14.6°C 87% 3.0 mph SW4.8 kmh SW -- 30.57 in1035.2 mb 0.00 in0.0 mm 0.00 in0.0 mm 0.00 in0.0 mm
11:30 AM 9.8°F-12.3°C 6.5°F-14.2°C 86% 8.0 mph WSW12.9 kmh WSW 6.0 mph9.7 kmh 30.57 in1035.2 mb 0.00 in0.0 mm 0.00 in0.0 mm 0.00 in0.0 mm
11:35 AM 10.4°F-12.0°C 7.1°F-13.8°C 86% 2.0 mph W3.2 kmh W 6.0 mph9.7 kmh 30.57 in1035.2 mb 0.00 in0.0 mm 0.00 in0.0 mm 0.00 in0.0 mm
11:40 AM 10.8°F-11.8°C 7.2°F-13.8°C 85% 6.0 mph SW9.7 kmh SW -- 30.56 in1034.9 mb 0.00 in0.0 mm 0.00 in0.0 mm 0.00 in0.0 mm
11:45 AM 11.0°F-11.7°C 6.6°F-14.1°C 82% 5.0 mph WSW8.0 kmh WSW -- 30.56 in1034.9 mb 0.00 in0.0 mm 0.00 in0.0 mm 0.00 in0.0 mm
11:50 AM 11.4°F-11.4°C 6.7°F-14.1°C 81% 4.0 mph W6.4 kmh W -- 30.56 in1034.9 mb 0.00 in0.0 mm 0.00 in0.0 mm 0.00 in0.0 mm
11:55 AM 11.7°F-11.3°C 6.5°F-14.2°C 79% 7.0 mph WSW11.3 kmh WSW -- 30.55 in1034.5 mb 0.00 in0.0 mm 0.00 in0.0 mm 0.00 in0.0 mm
12:00 PM 12.1°F-11.1°C 6.6°F-14.1°C 78% 9.0 mph SW14.5 kmh SW -- 30.55 in1034.5 mb 0.00 in0.0 mm 0.00 in0.0 mm 0.00 in0.0 mm
12:05 PM 12.5°F-10.8°C 7.0°F-13.9°C 78% 3.0 mph SSW4.8 kmh SSW -- 30.55 in1034.5 mb 0.00 in0.0 mm 0.00 in0.0 mm 0.00 in0.0 mm
12:10 PM 12.6°F-10.8°C 6.2°F-14.3°C 75% 9.0 mph WSW14.5 kmh WSW -- 30.55 in1034.5 mb 0.00 in0.0 mm 0.00 in0.0 mm 0.00 in0.0 mm
12:15 PM 12.9°F-10.6°C 6.5°F-14.2°C 75% 10.0 mph WSW16.1 kmh WSW -- 30.54 in1034.2 mb 0.00 in0.0 mm 0.00 in0.0 mm 0.00 in0.0 mm
12:20 PM 13.1°F-10.5°C 6.7°F-14.1°C 75% 3.0 mph WSW4.8 kmh WSW 14.0 mph22.5 kmh 30.54 in1034.2 mb 0.00 in0.0 mm 0.00 in0.0 mm 0.00 in0.0 mm
12:25 PM 13.3°F-10.4°C 6.9°F-13.9°C 75% 6.0 mph SW9.7 kmh SW 14.0 mph22.5 kmh 30.54 in1034.2 mb 0.00 in0.0 mm 0.00 in0.0 mm 0.00 in0.0 mm
12:30 PM 13.6°F-10.2°C 6.9°F-13.9°C 74% 10.0 mph SW16.1 kmh SW -- 30.53 in1033.9 mb 0.00 in0.0 mm 0.00 in0.0 mm 0.00 in0.0 mm
12:35 PM 13.8°F-10.1°C 6.8°F-14.0°C 73% 6.0 mph SW9.7 kmh SW -- 30.52 in1033.5 mb 0.00 in0.0 mm 0.00 in0.0 mm 0.00 in0.0 mm
12:40 PM 14.1°F-9.9°C 7.1°F-13.8°C 73% 6.0 mph SSW9.7 kmh SSW -- 30.52 in1033.5 mb 0.00 in0.0 mm 0.00 in0.0 mm 0.00 in0.0 mm
12:45 PM 14.4°F-9.8°C 7.1°F-13.8°C 72% 7.0 mph WSW11.3 kmh WSW -- 30.52 in1033.5 mb 0.00 in0.0 mm 0.00 in0.0 mm 0.00 in0.0 mm
12:50 PM 14.8°F-9.6°C 7.4°F-13.7°C 72% 9.0 mph WSW14.5 kmh WSW -- 30.51 in1033.2 mb 0.00 in0.0 mm 0.00 in0.0 mm 0.00 in0.0 mm
12:55 PM 15.1°F-9.4°C 7.4°F-13.7°C 71% 7.0 mph SSW11.3 kmh SSW -- 30.50 in1032.8 mb 0.00 in0.0 mm 0.00 in0.0 mm 0.00 in0.0 mm
01:00 PM 15.1°F-9.4°C 7.4°F-13.7°C 71% 9.0 mph SW14.5 kmh SW -- 30.50 in1032.8 mb 0.00 in0.0 mm 0.00 in0.0 mm 0.00 in0.0 mm
01:05 PM 15.8°F-9.0°C 8.1°F-13.3°C 71% 2.0 mph SW3.2 kmh SW -- 30.50 in1032.8 mb 0.00 in0.0 mm 0.00 in0.0 mm 0.00 in0.0 mm
01:10 PM 16.0°F-8.9°C 8.3°F-13.2°C 71% 4.0 mph SSW6.4 kmh SSW 12.0 mph19.3 kmh 30.49 in1032.5 mb 0.00 in0.0 mm 0.00 in0.0 mm 0.00 in0.0 mm
01:15 PM 16.0°F-8.9°C 8.0°F-13.3°C 70% 4.0 mph WSW6.4 kmh WSW 12.0 mph19.3 kmh 30.48 in1032.2 mb 0.00 in0.0 mm 0.00 in0.0 mm 0.00 in0.0 mm
01:20 PM 16.1°F-8.8°C 8.1°F-13.3°C 70% 5.0 mph SW8.0 kmh SW -- 30.48 in1032.2 mb 0.00 in0.0 mm 0.00 in0.0 mm 0.00 in0.0 mm
01:25 PM 16.3°F-8.7°C 8.6°F-13.0°C 71% 5.0 mph SW8.0 kmh SW -- 30.48 in1032.2 mb 0.00 in0.0 mm 0.00 in0.0 mm 0.00 in0.0 mm
01:30 PM 16.6°F-8.6°C 8.2°F-13.2°C 69% 7.0 mph SW11.3 kmh SW -- 30.47 in1031.8 mb 0.00 in0.0 mm 0.00 in0.0 mm 0.00 in0.0 mm
01:35 PM 16.9°F-8.4°C 8.5°F-13.1°C 69% 3.0 mph WSW4.8 kmh WSW -- 30.47 in1031.8 mb 0.00 in0.0 mm 0.00 in0.0 mm 0.00 in0.0 mm
01:40 PM 17.0°F-8.3°C 8.6°F-13.0°C 69% 6.0 mph SW9.7 kmh SW -- 30.46 in1031.5 mb 0.00 in0.0 mm 0.00 in0.0 mm 0.00 in0.0 mm
01:45 PM 17.2°F-8.2°C 8.5°F-13.1°C 68% 10.0 mph WSW16.1 kmh WSW -- 30.46 in1031.5 mb 0.00 in0.0 mm 0.00 in0.0 mm 0.00 in0.0 mm
01:50 PM 17.6°F-8.0°C 8.9°F-12.8°C 68% 11.0 mph SW17.7 kmh SW -- 30.45 in1031.2 mb 0.00 in0.0 mm 0.00 in0.0 mm 0.00 in0.0 mm
01:55 PM 18.0°F-7.8°C 8.9°F-12.8°C 67% 6.0 mph SSW9.7 kmh SSW -- 30.45 in1031.2 mb 0.00 in0.0 mm 0.00 in0.0 mm 0.00 in0.0 mm
02:00 PM 18.4°F-7.6°C 8.6°F-13.0°C 65% 6.0 mph WSW9.7 kmh WSW 14.0 mph22.5 kmh 30.44 in1030.8 mb 0.00 in0.0 mm 0.00 in0.0 mm 0.00 in0.0 mm
02:05 PM 18.8°F-7.3°C 9.0°F-12.8°C 65% 7.0 mph S11.3 kmh S 14.0 mph22.5 kmh 30.44 in1030.8 mb 0.00 in0.0 mm 0.00 in0.0 mm 0.00 in0.0 mm
02:10 PM 19.2°F-7.1°C 9.0°F-12.8°C 64% 9.0 mph WSW14.5 kmh WSW -- 30.43 in1030.5 mb 0.00 in0.0 mm 0.00 in0.0 mm 0.00 in0.0 mm
02:15 PM 19.5°F-6.9°C 9.3°F-12.6°C 64% 6.0 mph SSW9.7 kmh SSW -- 30.43 in1030.5 mb 0.00 in0.0 mm 0.00 in0.0 mm 0.00 in0.0 mm
02:20 PM 19.9°F-6.7°C 9.7°F-12.4°C 64% 13.0 mph WSW20.9 kmh WSW -- 30.42 in1030.1 mb 0.00 in0.0 mm 0.00 in0.0 mm 0.00 in0.0 mm
02:25 PM 20.2°F-6.6°C 9.6°F-12.4°C 63% 6.0 mph SW9.7 kmh SW -- 30.42 in1030.1 mb 0.00 in0.0 mm 0.00 in0.0 mm 0.00 in0.0 mm
02:30 PM 20.4°F-6.4°C 9.5°F-12.5°C 62% 5.0 mph SW8.0 kmh SW -- 30.42 in1030.1 mb 0.00 in0.0 mm 0.00 in0.0 mm 0.00 in0.0 mm
02:35 PM 20.7°F-6.3°C 9.8°F-12.3°C 62% 5.0 mph SW8.0 kmh SW -- 30.41 in1029.8 mb 0.00 in0.0 mm 0.00 in0.0 mm 0.00 in0.0 mm
02:40 PM 21.0°F-6.1°C 10.1°F-12.2°C 62% 6.0 mph SW9.7 kmh SW -- 30.41 in1029.8 mb 0.00 in0.0 mm 0.00 in0.0 mm 0.00 in0.0 mm
02:45 PM 21.1°F-6.1°C 10.1°F-12.2°C 62% 4.0 mph SW6.4 kmh SW -- 30.41 in1029.8 mb 0.00 in0.0 mm 0.00 in0.0 mm 0.00 in0.0 mm
02:50 PM 21.3°F-5.9°C 10.3°F-12.1°C 62% 12.0 mph WSW19.3 kmh WSW 14.0 mph22.5 kmh 30.40 in1029.5 mb 0.00 in0.0 mm 0.00 in0.0 mm 0.00 in0.0 mm
02:55 PM 21.5°F-5.8°C 10.2°F-12.1°C 61% 7.0 mph SW11.3 kmh SW 14.0 mph22.5 kmh 30.40 in1029.5 mb 0.00 in0.0 mm 0.00 in0.0 mm 0.00 in0.0 mm
03:00 PM 21.6°F-5.8°C 10.3°F-12.1°C 61% 5.0 mph SW8.0 kmh SW -- 30.40 in1029.5 mb 0.00 in0.0 mm 0.00 in0.0 mm 0.00 in0.0 mm
03:05 PM 21.8°F-5.7°C 10.4°F-12.0°C 61% 8.0 mph SW12.9 kmh SW -- 30.40 in1029.5 mb 0.00 in0.0 mm 0.00 in0.0 mm 0.00 in0.0 mm
03:10 PM 22.1°F-5.5°C 10.7°F-11.8°C 61% 4.0 mph SSW6.4 kmh SSW -- 30.40 in1029.5 mb 0.00 in0.0 mm 0.00 in0.0 mm 0.00 in0.0 mm
03:15 PM 22.3°F-5.4°C 10.9°F-11.7°C 61% 5.0 mph SSW8.0 kmh SSW -- 30.39 in1029.1 mb 0.00 in0.0 mm 0.00 in0.0 mm 0.00 in0.0 mm
03:20 PM 22.1°F-5.5°C 10.4°F-12.0°C 60% 11.0 mph SW17.7 kmh SW -- 30.39 in1029.1 mb 0.00 in0.0 mm 0.00 in0.0 mm 0.00 in0.0 mm
03:25 PM 22.1°F-5.5°C 10.4°F-12.0°C 60% 4.0 mph SW6.4 kmh SW -- 30.39 in1029.1 mb 0.00 in0.0 mm 0.00 in0.0 mm 0.00 in0.0 mm
03:30 PM 22.0°F-5.6°C 10.3°F-12.1°C 60% 4.0 mph WSW6.4 kmh WSW -- 30.39 in1029.1 mb 0.00 in0.0 mm 0.00 in0.0 mm 0.00 in0.0 mm
03:35 PM 22.1°F-5.5°C 10.7°F-11.8°C 61% 8.0 mph SW12.9 kmh SW -- 30.39 in1029.1 mb 0.00 in0.0 mm 0.00 in0.0 mm 0.00 in0.0 mm
03:40 PM 22.2°F-5.4°C 10.8°F-11.8°C 61% 7.0 mph SW11.3 kmh SW 15.0 mph24.1 kmh 30.39 in1029.1 mb 0.00 in0.0 mm 0.00 in0.0 mm 0.00 in0.0 mm
03:45 PM 22.5°F-5.3°C 10.7°F-11.8°C 60% 6.0 mph WSW9.7 kmh WSW 15.0 mph24.1 kmh 30.38 in1028.8 mb 0.00 in0.0 mm 0.00 in0.0 mm 0.00 in0.0 mm
03:50 PM 22.6°F-5.2°C 10.8°F-11.8°C 60% 10.0 mph SW16.1 kmh SW -- 30.38 in1028.8 mb 0.00 in0.0 mm 0.00 in0.0 mm 0.00 in0.0 mm
03:55 PM 22.6°F-5.2°C 10.8°F-11.8°C 60% 8.0 mph SW12.9 kmh SW -- 30.38 in1028.8 mb 0.00 in0.0 mm 0.00 in0.0 mm 0.00 in0.0 mm
04:00 PM 22.9°F-5.1°C 10.7°F-11.8°C 59% 6.0 mph WSW9.7 kmh WSW -- 30.38 in1028.8 mb 0.00 in0.0 mm 0.00 in0.0 mm 0.00 in0.0 mm
04:05 PM 23.0°F-5.0°C 10.8°F-11.8°C 59% 8.0 mph SW12.9 kmh SW -- 30.38 in1028.8 mb 0.00 in0.0 mm 0.00 in0.0 mm 0.00 in0.0 mm
04:10 PM 23.1°F-4.9°C 11.3°F-11.5°C 60% 8.0 mph SW12.9 kmh SW -- 30.38 in1028.8 mb 0.00 in0.0 mm 0.00 in0.0 mm 0.00 in0.0 mm
04:15 PM 23.0°F-5.0°C 10.8°F-11.8°C 59% 7.0 mph WSW11.3 kmh WSW -- 30.37 in1028.4 mb 0.00 in0.0 mm 0.00 in0.0 mm 0.00 in0.0 mm
04:20 PM 23.0°F-5.0°C 10.5°F-11.9°C 58% 8.0 mph SW12.9 kmh SW -- 30.37 in1028.4 mb 0.00 in0.0 mm 0.00 in0.0 mm 0.00 in0.0 mm
04:25 PM 22.8°F-5.1°C 10.3°F-12.1°C 58% 8.0 mph SW12.9 kmh SW -- 30.37 in1028.4 mb 0.00 in0.0 mm 0.00 in0.0 mm 0.00 in0.0 mm
04:30 PM 22.8°F-5.1°C 10.6°F-11.9°C 59% 7.0 mph SW11.3 kmh SW 15.0 mph24.1 kmh 30.37 in1028.4 mb 0.00 in0.0 mm 0.00 in0.0 mm 0.00 in0.0 mm
04:35 PM 22.8°F-5.1°C 10.3°F-12.1°C 58% 6.0 mph SW9.7 kmh SW 15.0 mph24.1 kmh 30.37 in1028.4 mb 0.00 in0.0 mm 0.00 in0.0 mm 0.00 in0.0 mm
04:40 PM 22.6°F-5.2°C 10.8°F-11.8°C 60% 6.0 mph SW9.7 kmh SW -- 30.37 in1028.4 mb 0.00 in0.0 mm 0.00 in0.0 mm 0.00 in0.0 mm
04:45 PM 22.3°F-5.4°C 10.9°F-11.7°C 61% 5.0 mph SW8.0 kmh SW -- 30.37 in1028.4 mb 0.00 in0.0 mm 0.00 in0.0 mm 0.00 in0.0 mm
04:50 PM 22.1°F-5.5°C 10.7°F-11.8°C 61% 6.0 mph SW9.7 kmh SW -- 30.36 in1028.1 mb 0.00 in0.0 mm 0.00 in0.0 mm 0.00 in0.0 mm
04:55 PM 21.9°F-5.6°C 10.9°F-11.7°C 62% 5.0 mph SW8.0 kmh SW -- 30.36 in1028.1 mb 0.00 in0.0 mm 0.00 in0.0 mm 0.00 in0.0 mm
05:00 PM 21.7°F-5.7°C 10.7°F-11.8°C 62% 8.0 mph SW12.9 kmh SW -- 30.36 in1028.1 mb 0.00 in0.0 mm 0.00 in0.0 mm 0.00 in0.0 mm
05:05 PM 21.6°F-5.8°C 11.0°F-11.7°C 63% 7.0 mph SSW11.3 kmh SSW -- 30.36 in1028.1 mb 0.00 in0.0 mm 0.00 in0.0 mm 0.00 in0.0 mm
05:10 PM 21.6°F-5.8°C 11.0°F-11.7°C 63% 5.0 mph SW8.0 kmh SW -- 30.36 in1028.1 mb 0.00 in0.0 mm 0.00 in0.0 mm 0.00 in0.0 mm
05:15 PM 21.5°F-5.8°C 10.9°F-11.7°C 63% 8.0 mph SW12.9 kmh SW -- 30.35 in1027.8 mb 0.00 in0.0 mm 0.00 in0.0 mm 0.00 in0.0 mm
05:20 PM 21.3°F-5.9°C 10.7°F-11.8°C 63% 11.0 mph SW17.7 kmh SW 12.0 mph19.3 kmh 30.35 in1027.8 mb 0.00 in0.0 mm 0.00 in0.0 mm 0.00 in0.0 mm
05:25 PM 21.3°F-5.9°C 10.7°F-11.8°C 63% 6.0 mph SW9.7 kmh SW 12.0 mph19.3 kmh 30.35 in1027.8 mb 0.00 in0.0 mm 0.00 in0.0 mm 0.00 in0.0 mm
05:30 PM 21.2°F-6.0°C 10.6°F-11.9°C 63% 6.0 mph SW9.7 kmh SW -- 30.34 in1027.4 mb 0.00 in0.0 mm 0.00 in0.0 mm 0.00 in0.0 mm
05:35 PM 21.1°F-6.1°C 10.5°F-11.9°C 63% 6.0 mph SW9.7 kmh SW -- 30.34 in1027.4 mb 0.00 in0.0 mm 0.00 in0.0 mm 0.00 in0.0 mm
05:40 PM 21.0°F-6.1°C 10.4°F-12.0°C 63% 8.0 mph SW12.9 kmh SW -- 30.33 in1027.1 mb 0.00 in0.0 mm 0.00 in0.0 mm 0.00 in0.0 mm
05:45 PM 20.9°F-6.2°C 10.3°F-12.1°C 63% 6.0 mph SW9.7 kmh SW -- 30.34 in1027.4 mb 0.00 in0.0 mm 0.00 in0.0 mm 0.00 in0.0 mm
05:50 PM 20.5°F-6.4°C 10.3°F-12.1°C 64% 7.0 mph SW11.3 kmh SW -- 30.33 in1027.1 mb 0.00 in0.0 mm 0.00 in0.0 mm 0.00 in0.0 mm
05:55 PM 20.1°F-6.6°C 10.3°F-12.1°C 65% 7.0 mph SW11.3 kmh SW -- 30.33 in1027.1 mb 0.00 in0.0 mm 0.00 in0.0 mm 0.00 in0.0 mm
06:00 PM 19.8°F-6.8°C 10.3°F-12.1°C 66% 6.0 mph SW9.7 kmh SW -- 30.33 in1027.1 mb 0.00 in0.0 mm 0.00 in0.0 mm 0.00 in0.0 mm
06:05 PM 20.0°F-6.7°C 10.2°F-12.1°C 65% 9.0 mph SW14.5 kmh SW -- 30.32 in1026.8 mb 0.00 in0.0 mm 0.00 in0.0 mm 0.00 in0.0 mm
06:10 PM 19.9°F-6.7°C 10.1°F-12.2°C 65% 6.0 mph SSW9.7 kmh SSW 10.0 mph16.1 kmh 30.32 in1026.8 mb 0.00 in0.0 mm 0.00 in0.0 mm 0.00 in0.0 mm
06:15 PM 19.9°F-6.7°C 10.1°F-12.2°C 65% 8.0 mph SW12.9 kmh SW 10.0 mph16.1 kmh 30.32 in1026.8 mb 0.00 in0.0 mm 0.00 in0.0 mm 0.00 in0.0 mm
06:20 PM 19.9°F-6.7°C 10.1°F-12.2°C 65% 9.0 mph SW14.5 kmh SW -- 30.32 in1026.8 mb 0.00 in0.0 mm 0.00 in0.0 mm 0.00 in0.0 mm
06:25 PM 19.7°F-6.8°C 9.9°F-12.3°C 65% 6.0 mph SW9.7 kmh SW -- 30.31 in1026.4 mb 0.00 in0.0 mm 0.00 in0.0 mm 0.00 in0.0 mm
06:30 PM 19.4°F-7.0°C 9.9°F-12.3°C 66% 5.0 mph SW8.0 kmh SW -- 30.31 in1026.4 mb 0.00 in0.0 mm 0.00 in0.0 mm 0.00 in0.0 mm
06:35 PM 19.3°F-7.1°C 9.8°F-12.3°C 66% 5.0 mph SSW8.0 kmh SSW -- 30.32 in1026.8 mb 0.00 in0.0 mm 0.00 in0.0 mm 0.00 in0.0 mm
06:40 PM 19.3°F-7.1°C 9.8°F-12.3°C 66% 6.0 mph SW9.7 kmh SW -- 30.32 in1026.8 mb 0.00 in0.0 mm 0.00 in0.0 mm 0.00 in0.0 mm
06:45 PM 19.3°F-7.1°C 10.2°F-12.1°C 67% 5.0 mph SW8.0 kmh SW -- 30.32 in1026.8 mb 0.00 in0.0 mm 0.00 in0.0 mm 0.00 in0.0 mm
06:50 PM 19.3°F-7.1°C 10.2°F-12.1°C 67% 6.0 mph SW9.7 kmh SW -- 30.31 in1026.4 mb 0.00 in0.0 mm 0.00 in0.0 mm 0.00 in0.0 mm
06:55 PM 19.3°F-7.1°C 10.2°F-12.1°C 67% 4.0 mph SW6.4 kmh SW -- 30.31 in1026.4 mb 0.00 in0.0 mm 0.00 in0.0 mm 0.00 in0.0 mm
07:00 PM 19.3°F-7.1°C 10.2°F-12.1°C 67% 4.0 mph SW6.4 kmh SW 11.0 mph17.7 kmh 30.31 in1026.4 mb 0.00 in0.0 mm 0.00 in0.0 mm 0.00 in0.0 mm
07:05 PM 19.3°F-7.1°C 10.2°F-12.1°C 67% 6.0 mph SW9.7 kmh SW 11.0 mph17.7 kmh 30.31 in1026.4 mb 0.00 in0.0 mm 0.00 in0.0 mm 0.00 in0.0 mm
07:10 PM 19.2°F-7.1°C 10.1°F-12.2°C 67% 6.0 mph WSW9.7 kmh WSW -- 30.31 in1026.4 mb 0.00 in0.0 mm 0.00 in0.0 mm 0.00 in0.0 mm
07:15 PM 19.1°F-7.2°C 10.3°F-12.1°C 68% 5.0 mph SW8.0 kmh SW -- 30.31 in1026.4 mb 0.00 in0.0 mm 0.00 in0.0 mm 0.00 in0.0 mm
07:20 PM 19.1°F-7.2°C 10.3°F-12.1°C 68% 3.0 mph SW4.8 kmh SW -- 30.31 in1026.4 mb 0.00 in0.0 mm 0.00 in0.0 mm 0.00 in0.0 mm
07:25 PM 19.1°F-7.2°C 10.3°F-12.1°C 68% 5.0 mph SW8.0 kmh SW -- 30.31 in1026.4 mb 0.00 in0.0 mm 0.00 in0.0 mm 0.00 in0.0 mm
07:30 PM 19.1°F-7.2°C 10.3°F-12.1°C 68% 8.0 mph WSW12.9 kmh WSW -- 30.31 in1026.4 mb 0.00 in0.0 mm 0.00 in0.0 mm 0.00 in0.0 mm
07:35 PM 19.1°F-7.2°C 10.3°F-12.1°C 68% 4.0 mph SW6.4 kmh SW -- 30.31 in1026.4 mb 0.00 in0.0 mm 0.00 in0.0 mm 0.00 in0.0 mm
07:40 PM 19.3°F-7.1°C 10.5°F-11.9°C 68% 6.0 mph SW9.7 kmh SW -- 30.30 in1026.1 mb 0.00 in0.0 mm 0.00 in0.0 mm 0.00 in0.0 mm
07:45 PM 19.3°F-7.1°C 10.5°F-11.9°C 68% 6.0 mph SW9.7 kmh SW -- 30.30 in1026.1 mb 0.00 in0.0 mm 0.00 in0.0 mm 0.00 in0.0 mm
07:50 PM 19.3°F-7.1°C 10.5°F-11.9°C 68% 7.0 mph SW11.3 kmh SW 11.0 mph17.7 kmh 30.30 in1026.1 mb 0.00 in0.0 mm 0.00 in0.0 mm 0.00 in0.0 mm
07:55 PM 19.4°F-7.0°C 10.6°F-11.9°C 68% 4.0 mph SW6.4 kmh SW 11.0 mph17.7 kmh 30.29 in1025.7 mb 0.00 in0.0 mm 0.00 in0.0 mm 0.00 in0.0 mm
08:00 PM 19.4°F-7.0°C 10.6°F-11.9°C 68% 4.0 mph SW6.4 kmh SW -- 30.30 in1026.1 mb 0.00 in0.0 mm 0.00 in0.0 mm 0.00 in0.0 mm
08:05 PM 19.6°F-6.9°C 10.8°F-11.8°C 68% 5.0 mph SW8.0 kmh SW -- 30.30 in1026.1 mb 0.00 in0.0 mm 0.00 in0.0 mm 0.00 in0.0 mm
08:10 PM 19.7°F-6.8°C 10.9°F-11.7°C 68% 5.0 mph WSW8.0 kmh WSW -- 30.29 in1025.7 mb 0.00 in0.0 mm 0.00 in0.0 mm 0.00 in0.0 mm
08:15 PM 19.8°F-6.8°C 10.6°F-11.9°C 67% 6.0 mph SW9.7 kmh SW -- 30.29 in1025.7 mb 0.00 in0.0 mm 0.00 in0.0 mm 0.00 in0.0 mm
08:20 PM 19.8°F-6.8°C 10.6°F-11.9°C 67% 6.0 mph SW9.7 kmh SW -- 30.29 in1025.7 mb 0.00 in0.0 mm 0.00 in0.0 mm 0.00 in0.0 mm
08:25 PM 19.9°F-6.7°C 10.7°F-11.8°C 67% 7.0 mph WSW11.3 kmh WSW -- 30.29 in1025.7 mb 0.00 in0.0 mm 0.00 in0.0 mm 0.00 in0.0 mm
08:30 PM 20.0°F-6.7°C 10.8°F-11.8°C 67% 7.0 mph WSW11.3 kmh WSW -- 30.29 in1025.7 mb 0.00 in0.0 mm 0.00 in0.0 mm 0.00 in0.0 mm
08:35 PM 19.9°F-6.7°C 10.7°F-11.8°C 67% 7.0 mph SW11.3 kmh SW -- 30.29 in1025.7 mb 0.00 in0.0 mm 0.00 in0.0 mm 0.00 in0.0 mm
08:40 PM 19.8°F-6.8°C 10.6°F-11.9°C 67% 7.0 mph S11.3 kmh S 15.0 mph24.1 kmh 30.29 in1025.7 mb 0.00 in0.0 mm 0.00 in0.0 mm 0.00 in0.0 mm
08:45 PM 19.6°F-6.9°C 10.8°F-11.8°C 68% 8.0 mph SW12.9 kmh SW 15.0 mph24.1 kmh 30.28 in1025.4 mb 0.00 in0.0 mm 0.00 in0.0 mm 0.00 in0.0 mm
08:50 PM 19.5°F-6.9°C 10.7°F-11.8°C 68% 6.0 mph SW9.7 kmh SW -- 30.28 in1025.4 mb 0.00 in0.0 mm 0.00 in0.0 mm 0.00 in0.0 mm
08:55 PM 19.5°F-6.9°C 10.7°F-11.8°C 68% 6.0 mph SW9.7 kmh SW -- 30.27 in1025.1 mb 0.00 in0.0 mm 0.00 in0.0 mm 0.00 in0.0 mm
09:00 PM 19.5°F-6.9°C 10.7°F-11.8°C 68% 10.0 mph SW16.1 kmh SW -- 30.27 in1025.1 mb 0.00 in0.0 mm 0.00 in0.0 mm 0.00 in0.0 mm
09:05 PM 19.5°F-6.9°C 10.7°F-11.8°C 68% 8.0 mph SW12.9 kmh SW -- 30.27 in1025.1 mb 0.00 in0.0 mm 0.00 in0.0 mm 0.00 in0.0 mm
09:10 PM 19.5°F-6.9°C 11.0°F-11.7°C 69% 6.0 mph SW9.7 kmh SW -- 30.26 in1024.7 mb 0.00 in0.0 mm 0.00 in0.0 mm 0.00 in0.0 mm
09:15 PM 19.5°F-6.9°C 11.0°F-11.7°C 69% 6.0 mph SSW9.7 kmh SSW -- 30.26 in1024.7 mb 0.00 in0.0 mm 0.00 in0.0 mm 0.00 in0.0 mm
09:20 PM 19.5°F-6.9°C 11.0°F-11.7°C 69% 3.0 mph SW4.8 kmh SW -- 30.25 in1024.4 mb 0.00 in0.0 mm 0.00 in0.0 mm 0.00 in0.0 mm
09:25 PM 19.5°F-6.9°C 11.0°F-11.7°C 69% 8.0 mph WSW12.9 kmh WSW -- 30.25 in1024.4 mb 0.00 in0.0 mm 0.00 in0.0 mm 0.00 in0.0 mm
09:30 PM 19.5°F-6.9°C 11.0°F-11.7°C 69% 6.0 mph SW9.7 kmh SW 11.0 mph17.7 kmh 30.25 in1024.4 mb 0.00 in0.0 mm 0.00 in0.0 mm 0.00 in0.0 mm
09:35 PM 19.5°F-6.9°C 11.3°F-11.5°C 70% 8.0 mph SW12.9 kmh SW 11.0 mph17.7 kmh 30.25 in1024.4 mb 0.00 in0.0 mm 0.00 in0.0 mm 0.00 in0.0 mm
09:40 PM 19.7°F-6.8°C 11.2°F-11.6°C 69% 7.0 mph SSW11.3 kmh SSW -- 30.25 in1024.4 mb 0.00 in0.0 mm 0.00 in0.0 mm 0.00 in0.0 mm
09:45 PM 19.8°F-6.8°C 11.3°F-11.5°C 69% 9.0 mph WSW14.5 kmh WSW -- 30.25 in1024.4 mb 0.00 in0.0 mm 0.00 in0.0 mm 0.00 in0.0 mm
09:50 PM 19.7°F-6.8°C 11.2°F-11.6°C 69% 6.0 mph SW9.7 kmh SW -- 30.25 in1024.4 mb 0.00 in0.0 mm 0.00 in0.0 mm 0.00 in0.0 mm
09:55 PM 19.9°F-6.7°C 11.4°F-11.4°C 69% 10.0 mph SW16.1 kmh SW -- 30.25 in1024.4 mb 0.00 in0.0 mm 0.00 in0.0 mm 0.00 in0.0 mm
10:00 PM 19.9°F-6.7°C 11.4°F-11.4°C 69% 9.0 mph WSW14.5 kmh WSW -- 30.25 in1024.4 mb 0.00 in0.0 mm 0.00 in0.0 mm 0.00 in0.0 mm
10:05 PM 19.8°F-6.8°C 11.3°F-11.5°C 69% 4.0 mph WSW6.4 kmh WSW -- 30.24 in1024.0 mb 0.00 in0.0 mm 0.00 in0.0 mm 0.00 in0.0 mm
10:10 PM 19.8°F-6.8°C 11.3°F-11.5°C 69% 11.0 mph SW17.7 kmh SW -- 30.24 in1024.0 mb 0.00 in0.0 mm 0.00 in0.0 mm 0.00 in0.0 mm
10:15 PM 20.0°F-6.7°C 11.2°F-11.6°C 68% 14.0 mph SW22.5 kmh SW -- 30.25 in1024.4 mb 0.00 in0.0 mm 0.00 in0.0 mm 0.00 in0.0 mm
10:20 PM 20.1°F-6.6°C 11.3°F-11.5°C 68% 7.0 mph SW11.3 kmh SW 19.0 mph30.6 kmh 30.24 in1024.0 mb 0.00 in0.0 mm 0.00 in0.0 mm 0.00 in0.0 mm
10:25 PM 19.9°F-6.7°C 11.4°F-11.4°C 69% 5.0 mph WSW8.0 kmh WSW 19.0 mph30.6 kmh 30.24 in1024.0 mb 0.00 in0.0 mm 0.00 in0.0 mm 0.00 in0.0 mm
10:30 PM 19.9°F-6.7°C 11.4°F-11.4°C 69% 6.0 mph SW9.7 kmh SW -- 30.24 in1024.0 mb 0.00 in0.0 mm 0.00 in0.0 mm 0.00 in0.0 mm
10:35 PM 19.8°F-6.8°C 11.3°F-11.5°C 69% 9.0 mph SW14.5 kmh SW -- 30.23 in1023.7 mb 0.00 in0.0 mm 0.00 in0.0 mm 0.00 in0.0 mm
10:40 PM 19.9°F-6.7°C 11.4°F-11.4°C 69% 6.0 mph WSW9.7 kmh WSW -- 30.23 in1023.7 mb 0.00 in0.0 mm 0.00 in0.0 mm 0.00 in0.0 mm
10:45 PM 19.9°F-6.7°C 11.4°F-11.4°C 69% 7.0 mph SW11.3 kmh SW -- 30.23 in1023.7 mb 0.00 in0.0 mm 0.00 in0.0 mm 0.00 in0.0 mm
10:50 PM 19.9°F-6.7°C 11.4°F-11.4°C 69% 6.0 mph WSW9.7 kmh WSW -- 30.23 in1023.7 mb 0.00 in0.0 mm 0.00 in0.0 mm 0.00 in0.0 mm
10:55 PM 19.9°F-6.7°C 11.7°F-11.3°C 70% 8.0 mph SW12.9 kmh SW -- 30.22 in1023.4 mb 0.00 in0.0 mm 0.00 in0.0 mm 0.00 in0.0 mm
11:00 PM 19.9°F-6.7°C 11.7°F-11.3°C 70% 11.0 mph WSW17.7 kmh WSW -- 30.22 in1023.4 mb 0.00 in0.0 mm 0.00 in0.0 mm 0.00 in0.0 mm
11:05 PM 19.9°F-6.7°C 11.4°F-11.4°C 69% 4.0 mph SSW6.4 kmh SSW -- 30.23 in1023.7 mb 0.00 in0.0 mm 0.00 in0.0 mm 0.00 in0.0 mm
11:10 PM 19.9°F-6.7°C 11.4°F-11.4°C 69% 14.0 mph SW22.5 kmh SW 19.0 mph30.6 kmh 30.23 in1023.7 mb 0.00 in0.0 mm 0.00 in0.0 mm 0.00 in0.0 mm
11:15 PM 20.0°F-6.7°C 11.5°F-11.4°C 69% 4.0 mph WSW6.4 kmh WSW 19.0 mph30.6 kmh 30.23 in1023.7 mb 0.00 in0.0 mm 0.00 in0.0 mm 0.00 in0.0 mm
11:20 PM 19.9°F-6.7°C 11.7°F-11.3°C 70% 5.0 mph SW8.0 kmh SW -- 30.23 in1023.7 mb 0.00 in0.0 mm 0.00 in0.0 mm 0.00 in0.0 mm
11:25 PM 19.9°F-6.7°C 11.7°F-11.3°C 70% 6.0 mph W9.7 kmh W -- 30.23 in1023.7 mb 0.00 in0.0 mm 0.00 in0.0 mm 0.00 in0.0 mm
11:30 PM 19.8°F-6.8°C 11.6°F-11.3°C 70% 5.0 mph SW8.0 kmh SW -- 30.23 in1023.7 mb 0.00 in0.0 mm 0.00 in0.0 mm 0.00 in0.0 mm
11:35 PM 19.9°F-6.7°C 11.7°F-11.3°C 70% 8.0 mph SW12.9 kmh SW -- 30.23 in1023.7 mb 0.00 in0.0 mm 0.00 in0.0 mm 0.00 in0.0 mm
11:40 PM 19.9°F-6.7°C 11.7°F-11.3°C 70% 6.0 mph SW9.7 kmh SW -- 30.22 in1023.4 mb 0.00 in0.0 mm 0.00 in0.0 mm 0.00 in0.0 mm
11:45 PM 19.9°F-6.7°C 11.7°F-11.3°C 70% 5.0 mph WSW8.0 kmh WSW -- 30.22 in1023.4 mb 0.00 in0.0 mm 0.00 in0.0 mm 0.00 in0.0 mm
11:50 PM 19.9°F-6.7°C 11.7°F-11.3°C 70% 6.0 mph SW9.7 kmh SW -- 30.22 in1023.4 mb 0.00 in0.0 mm 0.00 in0.0 mm 0.00 in0.0 mm
11:55 PM 19.9°F-6.7°C 11.7°F-11.3°C 70% 8.0 mph SW12.9 kmh SW -- 30.21 in1023.0 mb 0.00 in0.0 mm 0.00 in0.0 mm 0.00 in0.0 mm